Time;durP1;ratioP1;P1;durP2;ratioP2;P2;SDS_P1;SDS_P2;PMS_P1;PMS_P2;Temp;Humidity;BMP_temperature;BMP_pressure;BME280_temperature;BME280_humidity;BME280_pressure;Samples;Min_cycle;Max_cycle;Signal;HPM_P1;HPM_P2
2022/02/02 00:04:25;;;;;;;;;5.75;3.50;;;;;;;;5054657;28;45906;-69
2022/02/02 00:09:28;;;;;;;;;6.50;5.25;;;;;;;;5055062;28;45442;-70
2022/02/02 00:12:18;;;;;;;;;4.00;4.00;;;;;;;;5055165;28;45594;-70
2022/02/02 00:19:54;;;;;;;;;7.75;6.75;;;;;;;;5054777;28;45289;-70
2022/02/02 00:22:25;;;;;;;;;4.00;3.25;;;;;;;;5054720;28;45466;-69
2022/02/02 00:25:07;;;;;;;;;5.50;5.00;;;;;;;;5038755;28;45330;-70
2022/02/02 00:27:34;;;;;;;;;7.00;6.00;;;;;;;;5054322;28;45460;-69
2022/02/02 00:30:02;;;;;;;;;6.00;5.00;;;;;;;;5055519;28;45346;-69
2022/02/02 00:32:48;;;;;;;;;12.50;11.25;;;;;;;;5054743;28;45437;-68
2022/02/02 00:35:18;;;;;;;;;5.00;4.50;;;;;;;;5054208;28;46282;-68
2022/02/02 00:37:43;;;;;;;;;14.00;5.75;;;;;;;;5054649;28;45386;-68
2022/02/02 00:40:09;;;;;;;;;6.75;4.00;;;;;;;;5054492;28;45486;-68
2022/02/02 00:42:35;;;;;;;;;5.25;4.75;;;;;;;;5054306;28;45576;-69
2022/02/02 00:45:00;;;;;;;;;9.50;8.00;;;;;;;;5055044;28;46515;-68
2022/02/02 00:47:26;;;;;;;;;9.00;5.00;;;;;;;;5054247;28;45311;-70
2022/02/02 00:49:52;;;;;;;;;5.00;5.00;;;;;;;;5054458;28;45332;-69
2022/02/02 00:52:18;;;;;;;;;5.00;4.50;;;;;;;;5054413;28;45613;-70
2022/02/02 00:54:43;;;;;;;;;7.25;5.25;;;;;;;;5057442;28;45367;-69
2022/02/02 00:57:09;;;;;;;;;10.00;8.00;;;;;;;;5058381;28;45820;-69
2022/02/02 00:59:34;;;;;;;;;10.25;8.00;;;;;;;;5058006;28;45385;-70
2022/02/02 01:01:59;;;;;;;;;6.50;6.50;;;;;;;;5057933;28;45302;-69
2022/02/02 01:04:25;;;;;;;;;7.75;7.00;;;;;;;;5057785;28;46272;-71
2022/02/02 01:10:07;;;;;;;;;6.50;6.50;;;;;;;;4980207;28;45378;-71
2022/02/02 01:12:44;;;;;;;;;7.75;5.00;;;;;;;;4995147;28;45547;-71
2022/02/02 01:20:50;;;;;;;;;4.75;4.25;;;;;;;;4995172;28;45472;-70
2022/02/02 01:28:32;;;;;;;;;5.75;5.75;;;;;;;;4995096;28;45548;-70
2022/02/02 01:31:00;;;;;;;;;7.75;6.00;;;;;;;;4995263;28;45420;-71
2022/02/02 01:33:25;;;;;;;;;12.00;7.00;;;;;;;;4995432;28;45692;-70
2022/02/02 01:35:50;;;;;;;;;8.75;6.75;;;;;;;;4995524;28;45687;-71
2022/02/02 01:38:16;;;;;;;;;9.00;7.25;;;;;;;;4995169;28;45845;-71
2022/02/02 01:40:47;;;;;;;;;6.75;5.25;;;;;;;;4994957;28;45524;-70
2022/02/02 01:43:18;;;;;;;;;11.50;8.75;;;;;;;;5009319;28;45434;-71
2022/02/02 01:45:51;;;;;;;;;8.00;7.00;;;;;;;;5057320;28;46196;-71
2022/02/02 01:53:22;;;;;;;;;7.75;6.00;;;;;;;;5056987;28;45543;-71
2022/02/02 01:55:48;;;;;;;;;14.00;11.75;;;;;;;;5056907;28;46199;-71
2022/02/02 02:00:39;;;;;;;;;11.25;9.25;;;;;;;;5039054;28;45315;-70
2022/02/02 02:03:04;;;;;;;;;10.25;9.25;;;;;;;;5057743;28;45284;-71
2022/02/02 02:05:29;;;;;;;;;12.25;7.75;;;;;;;;5056238;28;46310;-71
2022/02/02 02:07:55;;;;;;;;;10.25;9.75;;;;;;;;5056607;28;45358;-71
2022/02/02 02:10:22;;;;;;;;;11.25;11.25;;;;;;;;5057077;28;45375;-70
2022/02/02 02:13:02;;;;;;;;;13.25;10.75;;;;;;;;5041343;28;45427;-70
2022/02/02 02:15:30;;;;;;;;;12.50;9.50;;;;;;;;5054512;28;46975;-71
2022/02/02 02:17:57;;;;;;;;;10.00;6.25;;;;;;;;5057040;28;45419;-70
2022/02/02 02:20:22;;;;;;;;;10.25;8.75;;;;;;;;5056592;28;45562;-70
2022/02/02 02:22:47;;;;;;;;;12.00;10.50;;;;;;;;5056294;28;45378;-71
2022/02/02 02:25:23;;;;;;;;;13.25;11.00;;;;;;;;5056628;28;46843;-70
2022/02/02 02:27:49;;;;;;;;;10.75;9.25;;;;;;;;5041101;28;45783;-70
2022/02/02 02:30:25;;;;;;;;;10.00;8.00;;;;;;;;5052970;28;45352;-70
2022/02/02 02:35:39;;;;;;;;;10.75;10.75;;;;;;;;5056336;28;45407;-70
2022/02/02 02:57:18;;;;;;;;;15.00;13.00;;;;;;;;5014427;28;45573;-71
2022/02/02 02:59:47;;;;;;;;;13.50;12.00;;;;;;;;5013726;28;45404;-69
2022/02/02 03:30:17;;;;;;;;;13.00;13.00;;;;;;;;5055927;28;45758;-71
2022/02/02 03:51:32;;;;;;;;;12.75;8.50;;;;;;;;5054728;28;45695;-69
2022/02/02 04:07:01;;;;;;;;;11.75;10.00;;;;;;;;5040279;28;45568;-70
2022/02/02 04:09:28;;;;;;;;;11.50;10.00;;;;;;;;5036874;28;45463;-71
2022/02/02 05:06:27;;;;;;;;;8.25;8.25;;;;;;;;4972342;28;45958;-70
2022/02/02 05:48:50;;;;;;;;;20.50;17.00;;;;;;;;4974369;28;45601;-71
2022/02/02 05:51:24;;;;;;;;;14.00;13.00;;;;;;;;4971350;28;45498;-71
2022/02/02 05:53:50;;;;;;;;;21.50;15.50;;;;;;;;4982369;28;45439;-70
2022/02/02 05:56:16;;;;;;;;;15.75;14.50;;;;;;;;5037652;28;45370;-71
2022/02/02 05:58:43;;;;;;;;;14.50;13.75;;;;;;;;5036936;28;45455;-71
2022/02/02 06:01:10;;;;;;;;;11.00;10.50;;;;;;;;5036804;28;45589;-71
2022/02/02 06:03:49;;;;;;;;;16.00;14.50;;;;;;;;5037321;28;45607;-71
2022/02/02 06:06:14;;;;;;;;;12.50;10.75;;;;;;;;5032356;28;45357;-71
2022/02/02 06:08:44;;;;;;;;;20.50;16.50;;;;;;;;5037228;28;47052;-70
2022/02/02 06:11:13;;;;;;;;;20.25;17.50;;;;;;;;5036969;28;45483;-71
2022/02/02 06:13:43;;;;;;;;;15.75;14.00;;;;;;;;5036684;28;45436;-71
2022/02/02 06:16:08;;;;;;;;;11.00;11.00;;;;;;;;5036779;28;45609;-68
2022/02/02 06:18:34;;;;;;;;;15.00;12.75;;;;;;;;5049050;28;45430;-70
2022/02/02 06:21:03;;;;;;;;;17.00;16.00;;;;;;;;5055589;28;45367;-69
2022/02/02 06:23:34;;;;;;;;;17.75;15.00;;;;;;;;5055217;28;45458;-70
2022/02/02 06:26:02;;;;;;;;;15.50;12.75;;;;;;;;5055028;28;45390;-70
2022/02/02 06:28:30;;;;;;;;;13.00;13.00;;;;;;;;5055225;28;46189;-69
2022/02/02 06:30:57;;;;;;;;;14.00;14.00;;;;;;;;5055454;28;45475;-68
2022/02/02 06:33:25;;;;;;;;;16.75;14.75;;;;;;;;5055527;28;45324;-70
2022/02/02 06:35:52;;;;;;;;;23.75;22.25;;;;;;;;5055028;28;45418;-70
2022/02/02 06:38:17;;;;;;;;;15.00;13.50;;;;;;;;5055149;28;47145;-71
2022/02/02 06:40:44;;;;;;;;;17.25;16.25;;;;;;;;5055010;28;45445;-71
2022/02/02 06:43:09;;;;;;;;;19.75;17.00;;;;;;;;5054236;28;45300;-71
2022/02/02 06:45:34;;;;;;;;;19.00;17.50;;;;;;;;5054597;28;45325;-72
2022/02/02 06:48:00;;;;;;;;;15.25;12.75;;;;;;;;5055096;28;45595;-71
2022/02/02 06:50:32;;;;;;;;;18.00;15.50;;;;;;;;5053518;28;45359;-71
2022/02/02 06:53:18;;;;;;;;;15.25;12.75;;;;;;;;5054495;28;45487;-71
2022/02/02 06:56:02;;;;;;;;;18.00;15.00;;;;;;;;5054247;28;45293;-70
2022/02/02 06:58:39;;;;;;;;;11.75;10.75;;;;;;;;5053857;28;46020;-71
2022/02/02 07:01:28;;;;;;;;;14.50;14.50;;;;;;;;5054033;28;45511;-71
2022/02/02 07:06:56;;;;;;;;;12.50;12.50;;;;;;;;5054476;28;45339;-71
2022/02/02 07:14:32;;;;;;;;;9.00;9.00;;;;;;;;5053774;28;45538;-71
2022/02/02 07:28:05;;;;;;;;;10.25;9.00;;;;;;;;5011530;28;45585;-71
2022/02/02 07:30:46;;;;;;;;;8.25;8.25;;;;;;;;5011061;28;46248;-72
2022/02/02 07:33:18;;;;;;;;;6.75;6.75;;;;;;;;5011346;28;45512;-72
2022/02/02 07:35:58;;;;;;;;;7.75;7.00;;;;;;;;5011412;28;45474;-71
2022/02/02 07:38:26;;;;;;;;;8.50;6.75;;;;;;;;5011767;28;45452;-72
2022/02/02 07:40:51;;;;;;;;;6.75;4.25;;;;;;;;5010437;28;47189;-72
2022/02/02 07:43:25;;;;;;;;;7.25;4.50;;;;;;;;5011178;28;45521;-70
2022/02/02 07:45:57;;;;;;;;;6.00;6.00;;;;;;;;4997108;28;45457;-72
2022/02/02 07:48:22;;;;;;;;;5.75;4.00;;;;;;;;5011795;28;45358;-71
2022/02/02 07:50:47;;;;;;;;;2.75;2.75;;;;;;;;5012262;28;45417;-72
2022/02/02 07:53:13;;;;;;;;;6.50;6.50;;;;;;;;5011184;28;45384;-71
2022/02/02 07:55:42;;;;;;;;;8.50;5.75;;;;;;;;5011215;28;45349;-71
2022/02/02 07:58:10;;;;;;;;;4.00;2.75;;;;;;;;5011099;28;45529;-72
2022/02/02 08:00:36;;;;;;;;;7.25;6.25;;;;;;;;5050477;28;46354;-71
2022/02/02 08:03:08;;;;;;;;;5.00;5.00;;;;;;;;5053457;28;45336;-71
2022/02/02 08:05:38;;;;;;;;;7.25;5.75;;;;;;;;5053209;28;45334;-73
2022/02/02 08:10:46;;;;;;;;;12.25;9.25;;;;;;;;5052670;28;46075;-71
2022/02/02 08:13:24;;;;;;;;;5.25;4.25;;;;;;;;5053271;28;45541;-72
2022/02/02 08:15:57;;;;;;;;;5.50;5.50;;;;;;;;5038199;28;45506;-70
2022/02/02 08:18:22;;;;;;;;;6.75;6.75;;;;;;;;5053362;28;45478;-71
2022/02/02 08:20:48;;;;;;;;;7.75;5.25;;;;;;;;5053271;28;46170;-71
2022/02/02 08:23:13;;;;;;;;;7.00;7.00;;;;;;;;5052812;28;45464;-71
2022/02/02 08:25:39;;;;;;;;;9.00;8.00;;;;;;;;5052764;28;45479;-72
2022/02/02 08:28:05;;;;;;;;;12.00;8.25;;;;;;;;5053401;28;45564;-72
2022/02/02 08:30:30;;;;;;;;;5.50;5.25;;;;;;;;5053286;28;46294;-71
2022/02/02 08:33:00;;;;;;;;;6.25;4.00;;;;;;;;5053022;28;45438;-71
2022/02/02 08:35:27;;;;;;;;;10.75;9.50;;;;;;;;5050597;28;45604;-75
2022/02/02 08:38:42;;;;;;;;;6.25;5.00;;;;;;;;5046152;28;45671;-75
2022/02/02 08:43:22;;;;;;;;;5.25;4.75;;;;;;;;5049465;28;45586;-72
2022/02/02 08:45:48;;;;;;;;;4.25;4.25;;;;;;;;5033603;28;45496;-76
2022/02/02 08:48:20;;;;;;;;;4.25;4.25;;;;;;;;5040609;28;45716;-74
2022/02/02 08:50:51;;;;;;;;;5.75;4.50;;;;;;;;5049128;28;45466;-70
2022/02/02 08:58:48;;;;;;;;;8.00;5.00;;;;;;;;5049263;28;45546;-75
2022/02/02 09:01:20;;;;;;;;;18.00;12.00;;;;;;;;5048479;28;47065;-76
2022/02/02 09:06:29;;;;;;;;;10.00;8.50;;;;;;;;5049991;28;45247;-76
2022/02/02 09:09:08;;;;;;;;;7.00;5.25;;;;;;;;5050472;28;45412;-77
2022/02/02 09:25:20;;;;;;;;;4.25;4.25;;;;;;;;5013770;28;45356;-72
2022/02/02 09:35:57;;;;;;;;;4.50;4.50;;;;;;;;5013578;28;45484;-72
2022/02/02 09:38:23;;;;;;;;;5.50;5.00;;;;;;;;5013424;28;45388;-71
2022/02/02 09:43:20;;;;;;;;;5.75;4.00;;;;;;;;5015088;28;45560;-70
2022/02/02 09:45:54;;;;;;;;;5.00;3.50;;;;;;;;5014135;28;45541;-72
2022/02/02 09:48:28;;;;;;;;;4.50;4.50;;;;;;;;5009775;28;45278;-72
2022/02/02 09:50:58;;;;;;;;;7.75;5.00;;;;;;;;5013021;28;45535;-72
2022/02/02 10:09:22;;;;;;;;;5.75;4.00;;;;;;;;5051891;28;45398;-72
2022/02/02 10:12:30;;;;;;;;;8.25;7.25;;;;;;;;5055290;28;45581;-72
2022/02/02 10:14:35;;;;;;;;;5.00;5.00;;;;;;;;5055223;28;46617;-72
2022/02/02 10:17:08;;;;;;;;;11.25;7.75;;;;;;;;5055057;28;45455;-71
2022/02/02 10:19:36;;;;;;;;;10.00;7.75;;;;;;;;5037943;28;45503;-71
2022/02/02 10:22:17;;;;;;;;;7.00;7.00;;;;;;;;5054963;28;45379;-72
2022/02/02 10:24:43;;;;;;;;;7.25;6.50;;;;;;;;5036430;28;46444;-72
2022/02/02 10:27:20;;;;;;;;;7.50;5.75;;;;;;;;5055509;28;45459;-72
2022/02/02 10:29:46;;;;;;;;;5.75;5.75;;;;;;;;5055540;28;45353;-71
2022/02/02 10:32:11;;;;;;;;;7.25;6.25;;;;;;;;5054886;28;45351;-72
2022/02/02 10:34:41;;;;;;;;;4.25;4.25;;;;;;;;5054698;28;45287;-72
2022/02/02 10:37:26;;;;;;;;;6.75;6.75;;;;;;;;5054506;28;45477;-71
2022/02/02 10:39:51;;;;;;;;;3.00;3.00;;;;;;;;5038974;28;45463;-70
2022/02/02 10:42:33;;;;;;;;;3.25;3.00;;;;;;;;5054788;28;45455;-71
2022/02/02 10:45:00;;;;;;;;;6.50;6.25;;;;;;;;5052425;28;45501;-71
2022/02/02 10:47:36;;;;;;;;;4.00;4.00;;;;;;;;5053745;28;45480;-73
2022/02/02 10:50:17;;;;;;;;;7.00;7.00;;;;;;;;5054642;28;45406;-72
2022/02/02 10:53:10;;;;;;;;;5.75;5.00;;;;;;;;5054794;28;45293;-73
2022/02/02 11:06:43;;;;;;;;;6.00;5.25;;;;;;;;5009720;28;45406;-72
2022/02/02 11:09:09;;;;;;;;;5.75;4.75;;;;;;;;5007439;28;45468;-69
2022/02/02 11:11:44;;;;;;;;;4.50;4.50;;;;;;;;5005871;28;45353;-70
2022/02/02 11:14:30;;;;;;;;;4.50;3.75;;;;;;;;5005509;28;45398;-70
2022/02/02 11:16:58;;;;;;;;;5.50;5.00;;;;;;;;4940540;28;47025;-68
2022/02/02 11:19:27;;;;;;;;;6.00;6.00;;;;;;;;4934672;28;45526;-70
2022/02/02 11:21:53;;;;;;;;;5.75;4.00;;;;;;;;4930101;28;45520;-70
2022/02/02 11:24:19;;;;;;;;;6.75;6.75;;;;;;;;4936568;28;45624;-70
2022/02/02 11:26:46;;;;;;;;;5.50;4.00;;;;;;;;4941949;28;47130;-69
2022/02/02 11:29:31;;;;;;;;;3.50;2.50;;;;;;;;4939434;28;45477;-70
2022/02/02 11:32:05;;;;;;;;;5.00;3.50;;;;;;;;4930358;28;45582;-71
2022/02/02 11:34:30;;;;;;;;;4.00;4.00;;;;;;;;4933393;28;45505;-69
2022/02/02 11:36:56;;;;;;;;;8.25;6.50;;;;;;;;4938063;28;47364;-69
2022/02/02 11:39:38;;;;;;;;;6.00;6.00;;;;;;;;4935194;28;45500;-71
2022/02/02 11:42:18;;;;;;;;;3.00;3.00;;;;;;;;4932093;28;45911;-70
2022/02/02 11:45:04;;;;;;;;;4.50;4.50;;;;;;;;4943089;28;45612;-71
2022/02/02 11:47:44;;;;;;;;;5.00;5.00;;;;;;;;4942330;28;47145;-70
2022/02/02 11:50:09;;;;;;;;;5.50;3.00;;;;;;;;4942371;28;45479;-71
2022/02/02 11:52:37;;;;;;;;;5.50;3.00;;;;;;;;4943157;28;45551;-71
2022/02/02 11:55:22;;;;;;;;;3.75;3.75;;;;;;;;5040709;28;45659;-71
2022/02/02 12:00:51;;;;;;;;;8.25;5.00;;;;;;;;5049180;28;45450;-70
2022/02/02 12:03:38;;;;;;;;;4.00;3.00;;;;;;;;5048157;28;45262;-69
2022/02/02 12:06:19;;;;;;;;;2.25;2.25;;;;;;;;5050172;28;45427;-71
2022/02/02 12:08:54;;;;;;;;;10.25;6.75;;;;;;;;5048862;28;46204;-71
2022/02/02 12:57:43;;;;;;;;;7.25;7.25;;;;;;;;4992710;28;45478;-69
2022/02/02 13:00:12;;;;;;;;;6.00;3.25;;;;;;;;4991647;28;45329;-70
2022/02/02 13:02:38;;;;;;;;;8.75;7.75;;;;;;;;5001112;28;46391;-70
2022/02/02 13:05:05;;;;;;;;;8.00;8.00;;;;;;;;4997323;28;45950;-71
2022/02/02 13:07:31;;;;;;;;;4.25;2.75;;;;;;;;5038083;28;45622;-71
2022/02/02 13:09:57;;;;;;;;;3.00;3.00;;;;;;;;5052668;28;45528;-71
2022/02/02 13:12:23;;;;;;;;;5.50;4.75;;;;;;;;5054428;28;47530;-70
2022/02/02 13:17:46;;;;;;;;;7.00;4.50;;;;;;;;5041119;28;45458;-70
2022/02/02 13:20:15;;;;;;;;;4.00;4.00;;;;;;;;5046627;28;45498;-71
2022/02/02 13:22:49;;;;;;;;;3.25;3.25;;;;;;;;5050615;28;47556;-71
2022/02/02 13:25:30;;;;;;;;;4.00;4.00;;;;;;;;5050753;28;45413;-71
2022/02/02 13:27:58;;;;;;;;;3.00;3.00;;;;;;;;5036117;28;45515;-70
2022/02/02 13:30:30;;;;;;;;;5.25;4.50;;;;;;;;5053435;28;45412;-70
2022/02/02 13:32:57;;;;;;;;;6.00;6.00;;;;;;;;5053890;28;45467;-71
2022/02/02 13:35:28;;;;;;;;;3.25;3.25;;;;;;;;5050900;28;45274;-71
2022/02/02 13:51:02;;;;;;;;;4.75;4.75;;;;;;;;5052675;28;45413;-70
2022/02/02 13:56:09;;;;;;;;;5.00;5.00;;;;;;;;5050667;28;45488;-69
2022/02/02 13:58:44;;;;;;;;;2.50;2.00;;;;;;;;5052444;28;45526;-69
2022/02/02 14:09:08;;;;;;;;;1.00;1.00;;;;;;;;5054653;28;45469;-70
2022/02/02 14:33:21;;;;;;;;;2.00;2.00;;;;;;;;5049965;28;45382;-69
2022/02/02 14:35:47;;;;;;;;;1.50;1.50;;;;;;;;5053993;28;46072;-69
2022/02/02 14:38:14;;;;;;;;;0.00;0.00;;;;;;;;5053029;28;45367;-69
2022/02/02 14:43:18;;;;;;;;;2.00;2.00;;;;;;;;5053343;28;45417;-68
2022/02/02 14:45:49;;;;;;;;;1.00;1.00;;;;;;;;5053159;28;46345;-69
2022/02/02 14:48:24;;;;;;;;;1.00;1.00;;;;;;;;5053624;28;45433;-70
2022/02/02 14:54:12;;;;;;;;;2.00;1.00;;;;;;;;5043638;28;45671;-69
2022/02/02 15:29:07;;;;;;;;;5.00;5.00;;;;;;;;4990638;28;45944;-70
2022/02/02 15:31:36;;;;;;;;;3.50;2.50;;;;;;;;4990884;28;45526;-69
2022/02/02 15:34:03;;;;;;;;;2.75;2.75;;;;;;;;4990631;28;45492;-69
2022/02/02 15:39:05;;;;;;;;;7.50;5.00;;;;;;;;4991124;28;45486;-70
2022/02/02 15:41:40;;;;;;;;;1.75;1.25;;;;;;;;4990410;28;45324;-70
2022/02/02 16:01:14;;;;;;;;;1.00;1.00;;;;;;;;5049841;28;45569;-68
2022/02/02 16:03:16;;;;;;;;;0.50;0.50;;;;;;;;5037660;28;45281;-70
2022/02/02 16:05:49;;;;;;;;;4.00;3.00;;;;;;;;5051797;28;45322;-70
2022/02/02 16:08:19;;;;;;;;;1.25;1.25;;;;;;;;5052190;28;45674;-71
2022/02/02 16:11:01;;;;;;;;;0.00;0.00;;;;;;;;5051366;28;46484;-68
2022/02/02 16:13:38;;;;;;;;;0.50;0.50;;;;;;;;5052012;28;45504;-68
2022/02/02 16:16:15;;;;;;;;;1.00;1.00;;;;;;;;5051486;28;45547;-70
2022/02/02 16:37:24;;;;;;;;;3.50;2.50;;;;;;;;5051385;28;45413;-69
2022/02/02 16:39:53;;;;;;;;;2.00;2.00;;;;;;;;5035417;28;45432;-69
2022/02/02 16:45:03;;;;;;;;;4.00;2.75;;;;;;;;5049834;28;45345;-70
2022/02/02 16:47:28;;;;;;;;;5.00;4.00;;;;;;;;5051550;28;45396;-69
2022/02/02 16:49:53;;;;;;;;;3.00;2.25;;;;;;;;5052228;28;45512;-69
2022/02/02 16:52:23;;;;;;;;;3.75;3.75;;;;;;;;5052227;28;46062;-70
2022/02/02 16:54:48;;;;;;;;;7.00;5.25;;;;;;;;5017915;28;45538;-69
2022/02/02 16:57:42;;;;;;;;;8.00;5.75;;;;;;;;5052522;28;45307;-69
2022/02/02 17:24:25;;;;;;;;;5.25;5.25;;;;;;;;5051862;28;45766;-70
2022/02/02 17:30:05;;;;;;;;;5.25;4.50;;;;;;;;5050045;28;45359;-71
2022/02/02 17:32:43;;;;;;;;;4.00;3.75;;;;;;;;5050531;28;45539;-69
2022/02/02 17:40:32;;;;;;;;;2.00;2.00;;;;;;;;5054836;28;45379;-70
2022/02/02 18:20:48;;;;;;;;;4.00;3.00;;;;;;;;4970881;28;45474;-69
2022/02/02 18:25:48;;;;;;;;;1.75;1.75;;;;;;;;4971880;28;45524;-70
2022/02/02 19:00:08;;;;;;;;;5.50;4.50;;;;;;;;5011910;28;45704;-69
2022/02/02 19:05:33;;;;;;;;;3.00;3.00;;;;;;;;5010649;28;45502;-69
2022/02/02 19:52:20;;;;;;;;;8.25;5.25;;;;;;;;5011614;28;45449;-69
2022/02/02 20:02:40;;;;;;;;;4.75;4.75;;;;;;;;5011431;28;45586;-67
2022/02/02 20:08:39;;;;;;;;;9.00;5.75;;;;;;;;5011370;28;45492;-68
2022/02/02 20:10:44;;;;;;;;;6.75;6.75;;;;;;;;5008162;28;45331;-69
2022/02/02 20:13:09;;;;;;;;;6.00;6.00;;;;;;;;5011093;28;45489;-69
2022/02/02 20:15:39;;;;;;;;;6.25;5.50;;;;;;;;5010404;28;45466;-68
2022/02/02 20:18:05;;;;;;;;;3.00;3.00;;;;;;;;5011095;28;45468;-68
2022/02/02 20:20:33;;;;;;;;;5.00;5.00;;;;;;;;5011097;28;45497;-67
2022/02/02 20:23:02;;;;;;;;;5.75;4.50;;;;;;;;5011221;28;45399;-68
2022/02/02 20:25:27;;;;;;;;;4.25;4.25;;;;;;;;5011124;28;46312;-69
2022/02/02 20:28:03;;;;;;;;;7.00;4.75;;;;;;;;5011975;28;45606;-69
2022/02/02 20:30:28;;;;;;;;;6.00;5.00;;;;;;;;5011553;28;45495;-69
2022/02/02 20:32:53;;;;;;;;;6.75;5.25;;;;;;;;5012074;28;45427;-68
2022/02/02 20:35:18;;;;;;;;;6.00;5.00;;;;;;;;5011263;28;46226;-69
2022/02/02 20:37:44;;;;;;;;;5.75;5.75;;;;;;;;5010878;28;45441;-69
2022/02/02 20:40:09;;;;;;;;;5.75;4.75;;;;;;;;5011229;28;45308;-69
2022/02/02 21:07:27;;;;;;;;;4.50;4.50;;;;;;;;4952381;28;46361;-68
2022/02/02 21:10:12;;;;;;;;;3.50;2.50;;;;;;;;4952287;28;45359;-68
2022/02/02 21:15:30;;;;;;;;;6.50;6.50;;;;;;;;4949014;28;45458;-70
2022/02/02 21:17:57;;;;;;;;;4.00;4.00;;;;;;;;4951448;28;45481;-71
2022/02/02 21:20:40;;;;;;;;;4.25;4.25;;;;;;;;4955250;28;45513;-70
2022/02/02 21:23:12;;;;;;;;;3.00;3.00;;;;;;;;4954672;28;45414;-69
2022/02/02 21:26:49;;;;;;;;;4.50;4.00;;;;;;;;4954316;28;45479;-69
2022/02/02 21:28:33;;;;;;;;;3.75;3.75;;;;;;;;4945818;28;45939;-69
2022/02/02 21:30:58;;;;;;;;;2.00;2.00;;;;;;;;4952452;28;45401;-69
2022/02/02 21:33:24;;;;;;;;;2.00;2.00;;;;;;;;4953564;28;45397;-69
2022/02/02 21:35:50;;;;;;;;;1.00;1.00;;;;;;;;4954064;28;45601;-70
2022/02/02 21:38:28;;;;;;;;;2.00;2.00;;;;;;;;4978342;28;47060;-70
2022/02/02 21:40:56;;;;;;;;;4.25;4.25;;;;;;;;5020058;28;45463;-69
2022/02/02 21:43:22;;;;;;;;;2.25;2.25;;;;;;;;5053187;28;45456;-69
2022/02/02 21:45:48;;;;;;;;;1.00;1.00;;;;;;;;5053676;28;45488;-70
2022/02/02 21:48:13;;;;;;;;;3.25;2.25;;;;;;;;5055670;28;46464;-69
2022/02/02 21:50:59;;;;;;;;;3.00;2.00;;;;;;;;5053352;28;45295;-68
2022/02/02 21:53:24;;;;;;;;;3.00;2.25;;;;;;;;5053555;28;45419;-69
2022/02/02 21:55:49;;;;;;;;;1.00;1.00;;;;;;;;5053198;28;45453;-68
2022/02/02 21:58:14;;;;;;;;;4.50;2.00;;;;;;;;5052253;28;46067;-68
2022/02/02 22:00:40;;;;;;;;;2.75;2.75;;;;;;;;5054990;28;45337;-68
2022/02/02 22:03:07;;;;;;;;;1.00;1.00;;;;;;;;5055298;28;45566;-70
2022/02/02 22:05:32;;;;;;;;;1.50;1.50;;;;;;;;5052744;28;45478;-69
2022/02/02 22:07:57;;;;;;;;;3.75;3.25;;;;;;;;5052390;28;46172;-68
2022/02/02 22:10:23;;;;;;;;;3.00;3.00;;;;;;;;5052454;28;45473;-69
2022/02/02 22:12:48;;;;;;;;;2.75;2.75;;;;;;;;5053526;28;45400;-70
2022/02/02 22:15:21;;;;;;;;;4.00;4.00;;;;;;;;5056158;28;45521;-69
2022/02/02 22:17:46;;;;;;;;;2.50;2.50;;;;;;;;5052326;28;52665;-69
2022/02/02 22:20:14;;;;;;;;;4.00;2.75;;;;;;;;5052829;28;45272;-69
2022/02/02 22:22:42;;;;;;;;;6.00;3.75;;;;;;;;5052361;28;45568;-69
2022/02/02 22:25:08;;;;;;;;;4.00;3.00;;;;;;;;5053124;28;45357;-70
2022/02/02 22:27:33;;;;;;;;;4.00;2.75;;;;;;;;5054894;28;46985;-69
2022/02/02 22:29:58;;;;;;;;;4.75;4.75;;;;;;;;5053520;28;45443;-70
2022/02/02 22:32:23;;;;;;;;;2.75;2.75;;;;;;;;5052420;28;45541;-69
2022/02/02 22:34:48;;;;;;;;;4.00;3.00;;;;;;;;5052772;28;45420;-69
2022/02/02 22:37:14;;;;;;;;;3.25;3.25;;;;;;;;5052625;28;46350;-70
2022/02/02 22:39:42;;;;;;;;;6.25;3.50;;;;;;;;5054457;28;45398;-69
2022/02/02 22:42:07;;;;;;;;;4.00;4.00;;;;;;;;5054677;28;45402;-69
2022/02/02 22:44:33;;;;;;;;;5.00;3.25;;;;;;;;5052844;28;45493;-70
2022/02/02 22:47:04;;;;;;;;;7.50;6.50;;;;;;;;5052526;28;46064;-71
2022/02/02 22:49:29;;;;;;;;;5.50;3.75;;;;;;;;5052932;28;45555;-70
2022/02/02 22:51:55;;;;;;;;;6.00;4.25;;;;;;;;5052238;28;45380;-71
2022/02/02 22:54:20;;;;;;;;;3.25;3.00;;;;;;;;5055967;28;45335;-71
2022/02/02 22:56:45;;;;;;;;;5.00;5.00;;;;;;;;5034085;28;47114;-71
2022/02/02 22:59:10;;;;;;;;;4.00;4.00;;;;;;;;5052182;28;45432;-71
2022/02/02 23:01:36;;;;;;;;;5.50;4.50;;;;;;;;5052543;28;45688;-69
2022/02/02 23:04:02;;;;;;;;;3.00;3.00;;;;;;;;5052747;28;45295;-70
2022/02/02 23:06:27;;;;;;;;;5.00;4.75;;;;;;;;5054873;28;45917;-69
2022/02/02 23:08:53;;;;;;;;;5.00;5.00;;;;;;;;5053000;28;45312;-71
2022/02/02 23:11:19;;;;;;;;;4.00;4.00;;;;;;;;5051922;28;45318;-70
2022/02/02 23:13:48;;;;;;;;;4.25;4.25;;;;;;;;5052140;28;45266;-69
2022/02/02 23:16:23;;;;;;;;;4.25;4.25;;;;;;;;5051733;28;46505;-69
2022/02/02 23:18:48;;;;;;;;;3.00;3.00;;;;;;;;5052409;28;45392;-68
2022/02/02 23:21:13;;;;;;;;;4.00;3.00;;;;;;;;5055158;28;45328;-69
2022/02/02 23:23:40;;;;;;;;;6.25;5.00;;;;;;;;5051287;28;45449;-69
2022/02/02 23:26:06;;;;;;;;;4.75;3.75;;;;;;;;5051883;28;46264;-69
2022/02/02 23:28:36;;;;;;;;;5.00;4.00;;;;;;;;5051300;28;45572;-69
2022/02/02 23:31:02;;;;;;;;;5.50;5.25;;;;;;;;5052381;28;45518;-69
2022/02/02 23:33:28;;;;;;;;;6.00;5.00;;;;;;;;5053615;28;45348;-70
2022/02/02 23:35:54;;;;;;;;;4.00;4.00;;;;;;;;5053762;28;46092;-69
2022/02/02 23:38:20;;;;;;;;;5.75;4.00;;;;;;;;5050976;28;45360;-69
2022/02/02 23:43:30;;;;;;;;;2.25;2.25;;;;;;;;5051780;28;45463;-70
2022/02/02 23:46:08;;;;;;;;;4.75;4.50;;;;;;;;5051226;28;46258;-71
2022/02/02 23:48:39;;;;;;;;;3.75;3.50;;;;;;;;5053780;28;45273;-68
2022/02/02 23:51:07;;;;;;;;;4.00;4.00;;;;;;;;5053101;28;45471;-68
2022/02/02 23:53:38;;;;;;;;;2.75;2.75;;;;;;;;5050851;28;45526;-69
2022/02/02 23:56:17;;;;;;;;;3.50;3.50;;;;;;;;5051583;28;45335;-70
2022/02/02 23:58:45;;;;;;;;;6.50;3.75;;;;;;;;5052897;28;45253;-71
